• Join FlightAware (Why Join?)
  • Login
  • US Flag 
06:12PM EDT


 

Airport Tracker/Info


-or-


 

Live Flight TrackerFlight Track Log ✈ VH-REJ ✈ 22-Jul-2013 ✈ YNRG - YPJT / JAD

Flight Track Log - Related Links

Times and Time Zones

All times are in EDT time to prevent confusion due to time zone crossing. See the VH-REJ flight status page for this flight to view local times or setup timezone preferences in your user account.

Time Position Orientation Groundspeed Altitude Reporting Facility
EDT Latitude Longitude Course Direction KTS MPH feet Rate Location/Type
02:01AM -31.7221 116.4891 224° Southwest 140 161 4,400  Level Aus ATC (RADAR)
02:02AM -31.7464 116.4619 224° Southwest 147 169 4,100 -480 Descending Aus ATC (RADAR)
02:03AM -31.7835 116.4283 218° Southwest 152 175 3,500 -540 Descending Aus ATC (RADAR)
02:04AM -31.8155 116.3968 220° Southwest 148 170 3,000 -480 Descending Aus ATC (RADAR)
02:05AM -31.8428 116.3708 219° Southwest 151 174 2,700 -300 Descending Aus ATC (RADAR)
02:05AM -31.8618 116.3539 217° Southwest 147 169 2,600  Descending Aus ATC (RADAR)
02:06AM -31.8863 116.3297 220° Southwest 136 157 2,700  Climbing Aus ATC (RADAR)
02:07AM -31.9138 116.2991 223° Southwest 146 168 2,600  Descending Aus ATC (RADAR)
02:08AM -31.9424 116.2664 224° Southwest 131 151 2,700  Climbing Aus ATC (RADAR)
02:09AM -31.9692 116.2463 212° Southwest 133 153 2,600 -60 Descending Aus ATC (RADAR)
02:10AM -31.9962 116.2262 212° Southwest 136 157 2,600  Level Aus ATC (RADAR)
02:10AM -32.0126 116.2100 220° Southwest 129 148 2,600  Level Aus ATC (RADAR)
02:11AM -32.0332 116.1895 220° Southwest 129 148 2,600  Level Aus ATC (RADAR)
02:12AM -32.0661 116.1648 212° Southwest 130 150 2,600 -60 Level Aus ATC (RADAR)
02:13AM -32.0973 116.1529 198° South 142 163 2,500 -120 Descending Aus ATC (RADAR)
02:16AM -32.2167 116.0333 360° North 3,000 -240 Climbing Aus ATC (Calculated)
02:17AM -32.2167 116.0333 360° North 1,600 -1,740 Descending Aus ATC (Calculated)
02:17AM -32.2167 116.0333 51° Northeast 1,600  Level Aus ATC (Calculated)
02:19AM -32.1810 116.0858 51° Northeast  Level FlightAware Approximate
02:20AM -32.2015 116.0556 231° Southwest  Level FlightAware Approximate
02:21AM -32.2123 116.0241 300° West  Level FlightAware Approximate
02:21AM -32.1689 115.9339 270° West 100  Level Aus ATC (Calculated)
02:22AM -32.1689 115.8947 270° West  Level FlightAware Approximate
02:22AM -32.1332 115.9075 148° Southeast 100  Level Aus ATC (Calculated)
02:24AM -32.1687 115.9338 328° Northwest  Level FlightAware Approximate
02:25AM -32.1406 115.9130 328° Northwest  Level FlightAware Approximate
02:26AM -32.1124 115.8923 328° Northwest  Level FlightAware Approximate
02:27AM -32.0974 115.8812 328° Northwest  Level FlightAware Approximate
02:28AM -32.0975 115.8811 328° Northwest  Level Estimated
02:29AM -32.0975 115.8811 328° Northwest  Level Estimated
02:30AM -32.0975 115.8811 328° Northwest  Level Estimated
02:31AM -32.0975 115.8811 328° Northwest  Level Estimated
02:32AM -32.0975 115.8811 328° Northwest  Level Estimated
02:33AM -32.0975 115.8811 328° Northwest  Level Estimated
02:34AM -32.0975 115.8811 328° Northwest  Level Estimated
02:35AM -32.0975 115.8811 328° Northwest  Level Estimated
02:36AM -32.0975 115.8811 328° Northwest  Level Estimated
02:37AM -32.0975 115.8811 328° Northwest  Level Estimated
02:38AM -32.0975 115.8811 328° Northwest  Level Estimated
02:39AM -32.0975 115.8811 328° Northwest  Level Estimated
02:40AM -32.0975 115.8811 328° Northwest  Level Estimated
02:41AM -32.0975 115.8811 328° Northwest  Level Estimated
02:42AM -32.0975 115.8811 328° Northwest  Level Estimated
02:43AM -32.0975 115.8811 328° Northwest  Level Estimated
02:44AM -32.0975 115.8811 328° Northwest  Level Estimated
02:45AM -32.0975 115.8811 328° Northwest  Level Estimated
02:46AM -32.0975 115.8811 328° Northwest  Level Estimated
02:47AM -32.0975 115.8811 328° Northwest  Level Estimated
02:48AM -32.0975 115.8811 328° Northwest  Level Estimated
02:49AM -32.0975 115.8811 328° Northwest  Level Estimated
02:50AM -32.0975 115.8811 328° Northwest  Level Estimated
02:51AM -32.0975 115.8811 328° Northwest  Level Estimated
02:52AM -32.0975 115.8811 328° Northwest  Level Estimated
02:53AM -32.0975 115.8811 328° Northwest  Level Estimated
02:54AM -32.0975 115.8811 328° Northwest  Level Estimated
02:55AM -32.0975 115.8811 328° Northwest  Level Estimated
02:56AM -32.0975 115.8811 328° Northwest  Level Estimated
02:57AM -32.0975 115.8811 328° Northwest  Level Estimated
02:58AM -32.0975 115.8811 328° Northwest  Level Estimated
02:59AM -32.0975 115.8811 328° Northwest  Level Estimated
03:00AM -32.0975 115.8811 328° Northwest  Level Estimated
03:01AM -32.0975 115.8811 328° Northwest  Level Estimated
03:02AM -32.0975 115.8811 328° Northwest  Level Estimated
03:03AM -32.0975 115.8811 328° Northwest  Level Estimated
03:04AM -32.0975 115.8811 328° Northwest  Level Estimated
03:05AM -32.0975 115.8811 328° Northwest  Level Estimated
03:06AM -32.0975 115.8811 328° Northwest  Level Estimated
03:07AM -32.0975 115.8811 328° Northwest  Level Estimated
03:08AM -32.0975 115.8811 328° Northwest  Level Estimated
03:09AM -32.0975 115.8811 328° Northwest  Level Estimated
03:10AM -32.0975 115.8811 328° Northwest  Level Estimated
03:11AM -32.0975 115.8811 328° Northwest  Level Estimated
03:12AM -32.0975 115.8811 328° Northwest  Level Estimated
03:13AM -32.0975 115.8811 328° Northwest  Level Estimated
03:14AM -32.0975 115.8811 328° Northwest  Level Estimated
03:15AM -32.0975 115.8811 328° Northwest  Level Estimated
03:16AM -32.0975 115.8811 328° Northwest  Level Estimated
03:17AM -32.0975 115.8811 328° Northwest  Level Estimated
03:18AM -32.0975 115.8811 328° Northwest  Level Estimated
03:19AM -32.0975 115.8811 328° Northwest  Level Estimated